Time,TemperatureF,DewpointF,PressureIn,WindDirection,WindDirectionDegrees,WindSpeedMPH,WindSpeedGustMPH,Humidity,HourlyPrecipIn,Conditions,Clouds,dailyrainin,SoftwareType,DateUTC
2013-01-01 00:00:00,39.6,35.8,30.01,ENE,67,0.0,0.0,86,0.04,,---,0.00,VWS V14.01,2013-01-01 06:00:00,
2013-01-01 00:03:00,39.6,35.8,30.01,ENE,67,0.0,0.0,86,0.04,,---,0.01,VWS V14.01,2013-01-01 06:03:00,
2013-01-01 00:05:00,39.6,35.8,30.01,ENE,67,0.0,0.0,86,0.04,,---,0.01,VWS V14.01,2013-01-01 06:05:00,
2013-01-01 00:08:00,39.6,35.8,30.01,ENE,67,0.0,0.0,86,0.05,,---,0.03,VWS V14.01,2013-01-01 06:08:00,
2013-01-01 00:10:00,39.5,35.7,30.01,ENE,67,0.0,0.0,86,0.05,,---,0.03,VWS V14.01,2013-01-01 06:10:00,
2013-01-01 00:13:00,39.5,35.7,30.01,ENE,67,0.0,1.0,86,0.06,,---,0.04,VWS V14.01,2013-01-01 06:13:00,
2013-01-01 00:15:00,39.5,35.7,30.01,ENE,67,0.0,1.0,86,0.06,,---,0.04,VWS V14.01,2013-01-01 06:15:00,
2013-01-01 00:18:00,39.5,35.7,30.01,ENE,67,0.0,0.0,86,0.08,,---,0.07,VWS V14.01,2013-01-01 06:18:00,
2013-01-01 00:20:00,39.5,35.7,30.01,ENE,67,0.0,0.0,86,0.08,,---,0.07,VWS V14.01,2013-01-01 06:20:00,
2013-01-01 00:23:00,39.5,35.7,30.01,ENE,67,0.0,0.0,86,0.09,,---,0.08,VWS V14.01,2013-01-01 06:23:00,
2013-01-01 00:25:00,39.5,35.7,30.01,ENE,67,0.0,0.0,86,0.09,,---,0.08,VWS V14.01,2013-01-01 06:25:00,
2013-01-01 00:28:00,39.3,35.5,30.02,ENE,67,0.0,0.0,86,0.09,,---,0.08,VWS V14.01,2013-01-01 06:28:00,
2013-01-01 00:30:00,39.3,35.5,30.02,ENE,67,0.0,0.0,86,0.09,,---,0.08,VWS V14.01,2013-01-01 06:30:00,
2013-01-01 00:33:00,39.3,35.8,30.02,ENE,67,0.0,0.0,87,0.10,,---,0.09,VWS V14.01,2013-01-01 06:33:00,
2013-01-01 00:35:00,39.3,35.8,30.02,ENE,67,0.0,0.0,87,0.10,,---,0.09,VWS V14.01,2013-01-01 06:35:00,
2013-01-01 00:38:00,39.3,35.8,30.02,ENE,67,0.0,0.0,87,0.09,,---,0.09,VWS V14.01,2013-01-01 06:38:00,
2013-01-01 00:40:00,39.3,35.8,30.02,ENE,67,0.0,0.0,87,0.09,,---,0.09,VWS V14.01,2013-01-01 06:40:00,
2013-01-01 00:43:00,39.3,35.8,30.02,ENE,67,0.0,0.0,87,0.10,,---,0.10,VWS V14.01,2013-01-01 06:43:00,
2013-01-01 00:45:00,39.3,35.8,30.02,ENE,67,0.0,0.0,87,0.10,,---,0.10,VWS V14.01,2013-01-01 06:45:00,
2013-01-01 00:48:00,39.3,35.8,30.02,ENE,67,0.0,0.0,87,0.11,,---,0.11,VWS V14.01,2013-01-01 06:48:00,
2013-01-01 00:50:00,39.3,35.8,30.02,ENE,67,0.0,0.0,87,0.11,,---,0.11,VWS V14.01,2013-01-01 06:50:00,
2013-01-01 00:53:00,39.3,35.8,30.02,ENE,67,0.0,0.0,87,0.12,,---,0.12,VWS V14.01,2013-01-01 06:53:00,
2013-01-01 00:55:00,39.3,35.8,30.02,ENE,67,0.0,0.0,87,0.12,,---,0.12,VWS V14.01,2013-01-01 06:55:00,
2013-01-01 00:58:00,39.3,35.8,30.02,ENE,67,0.0,0.0,87,0.12,,---,0.12,VWS V14.01,2013-01-01 06:58:00,
2013-01-01 01:00:00,39.2,35.7,30.02,ENE,67,0.0,0.0,87,0.12,,---,0.12,VWS V14.01,2013-01-01 07:00:00,
2013-01-01 01:03:00,39.2,35.7,30.02,ENE,67,0.0,0.0,87,0.12,,---,0.12,VWS V14.01,2013-01-01 07:03:00,
2013-01-01 01:05:00,39.2,35.7,30.02,ENE,67,0.0,0.0,87,0.13,,---,0.13,VWS V14.01,2013-01-01 07:05:00,
2013-01-01 01:08:00,39.2,36.0,30.02,ENE,67,0.0,0.0,88,0.12,,---,0.13,VWS V14.01,2013-01-01 07:08:00,
2013-01-01 01:10:00,39.2,36.0,30.02,ENE,67,0.0,0.0,88,0.12,,---,0.13,VWS V14.01,2013-01-01 07:10:00,
2013-01-01 01:14:00,39.2,36.0,30.01,ENE,67,0.0,0.0,88,0.10,,---,0.13,VWS V14.01,2013-01-01 07:14:00,
2013-01-01 01:15:00,39.2,36.0,30.01,ENE,67,0.0,0.0,88,0.10,,---,0.13,VWS V14.01,2013-01-01 07:15:00,
2013-01-01 01:19:00,39.2,36.0,30.01,ENE,67,0.0,0.0,88,0.10,,---,0.14,VWS V14.01,2013-01-01 07:19:00,
2013-01-01 01:20:00,39.2,36.0,30.01,ENE,67,0.0,1.0,88,0.10,,---,0.14,VWS V14.01,2013-01-01 07:20:00,
2013-01-01 01:24:00,39.2,36.0,30.01,ENE,67,0.0,1.0,88,0.07,,---,0.14,VWS V14.01,2013-01-01 07:24:00,
2013-01-01 01:25:00,39.3,36.0,30.01,ENE,67,0.0,1.0,88,0.07,,---,0.14,VWS V14.01,2013-01-01 07:25:00,
2013-01-01 01:29:00,39.3,36.0,30.02,ENE,67,0.0,1.0,88,0.06,,---,0.14,VWS V14.01,2013-01-01 07:29:00,
2013-01-01 01:30:00,39.3,36.0,30.02,ENE,67,0.0,1.0,88,0.06,,---,0.14,VWS V14.01,2013-01-01 07:30:00,
2013-01-01 01:34:00,39.3,36.3,30.02,ENE,67,0.0,2.0,89,0.07,,---,0.15,VWS V14.01,2013-01-01 07:34:00,
2013-01-01 01:35:00,39.3,36.3,30.02,ENE,67,0.0,2.0,89,0.07,,---,0.15,VWS V14.01,2013-01-01 07:35:00,
2013-01-01 01:39:00,39.3,36.3,30.02,ENE,67,0.0,1.0,89,0.07,,---,0.16,VWS V14.01,2013-01-01 07:39:00,
2013-01-01 01:40:00,39.3,36.3,30.02,ENE,67,0.0,1.0,89,0.07,,---,0.16,VWS V14.01,2013-01-01 07:40:00,
2013-01-01 01:44:00,39.3,36.3,30.01,ENE,67,0.0,1.0,89,0.07,,---,0.16,VWS V14.01,2013-01-01 07:44:00,
2013-01-01 01:45:00,39.3,36.3,30.01,ENE,67,0.0,1.0,89,0.07,,---,0.16,VWS V14.01,2013-01-01 07:45:00,
2013-01-01 01:49:00,39.3,36.3,30.01,ENE,67,0.0,2.0,89,0.07,,---,0.17,VWS V14.01,2013-01-01 07:49:00,
2013-01-01 01:50:00,39.3,36.3,30.01,ENE,67,0.0,2.0,89,0.07,,---,0.17,VWS V14.01,2013-01-01 07:50:00,
2013-01-01 01:54:00,39.3,36.3,30.01,ENE,67,0.0,2.0,89,0.07,,---,0.18,VWS V14.01,2013-01-01 07:54:00,
2013-01-01 01:55:00,39.3,36.3,30.01,ENE,67,0.0,2.0,89,0.07,,---,0.18,VWS V14.01,2013-01-01 07:55:00,
2013-01-01 01:59:00,39.3,36.3,30.01,ESE,107,0.0,3.0,89,0.07,,---,0.19,VWS V14.01,2013-01-01 07:59:00,
2013-01-01 02:00:00,39.3,36.3,30.01,ESE,107,0.0,3.0,89,0.07,,---,0.19,VWS V14.01,2013-01-01 08:00:00,
2013-01-01 02:04:00,39.3,36.3,30.01,SE,134,0.0,3.0,89,0.07,,---,0.19,VWS V14.01,2013-01-01 08:04:00,
2013-01-01 02:05:00,39.3,36.3,30.01,SE,134,1.0,3.0,89,0.07,,---,0.19,VWS V14.01,2013-01-01 08:05:00,
2013-01-01 02:09:00,39.3,36.6,30.01,SE,134,0.0,1.0,90,0.07,,---,0.20,VWS V14.01,2013-01-01 08:09:00,
2013-01-01 02:10:00,39.3,36.6,30.01,SE,134,0.0,1.0,90,0.07,,---,0.20,VWS V14.01,2013-01-01 08:10:00,
2013-01-01 02:14:00,39.3,36.6,30.01,SE,134,0.0,2.0,90,0.07,,---,0.20,VWS V14.01,2013-01-01 08:14:00,
2013-01-01 02:15:00,39.3,36.6,30.01,SE,134,0.0,2.0,90,0.07,,---,0.20,VWS V14.01,2013-01-01 08:15:00,
2013-01-01 02:19:00,39.3,36.6,30.01,SE,134,0.0,1.0,90,0.07,,---,0.20,VWS V14.01,2013-01-01 08:19:00,
2013-01-01 02:20:00,39.3,36.6,30.01,SE,134,0.0,1.0,90,0.07,,---,0.20,VWS V14.01,2013-01-01 08:20:00,
2013-01-01 02:24:00,39.3,36.6,30.01,SE,134,0.0,2.0,90,0.06,,---,0.20,VWS V14.01,2013-01-01 08:24:00,
2013-01-01 02:25:00,39.3,36.6,30.01,SE,134,0.0,2.0,90,0.06,,---,0.20,VWS V14.01,2013-01-01 08:25:00,
2013-01-01 02:29:00,39.3,36.6,30.00,SE,134,0.0,2.0,90,0.07,,---,0.21,VWS V14.01,2013-01-01 08:29:00,
2013-01-01 02:30:00,39.3,36.6,30.00,SE,134,0.0,2.0,90,0.07,,---,0.21,VWS V14.01,2013-01-01 08:30:00,
2013-01-01 02:34:00,39.3,36.6,30.00,SE,134,0.0,2.0,90,0.07,,---,0.21,VWS V14.01,2013-01-01 08:34:00,
2013-01-01 02:35:00,39.3,36.6,30.00,SE,134,0.0,2.0,90,0.07,,---,0.21,VWS V14.01,2013-01-01 08:35:00,
2013-01-01 02:39:00,39.3,36.6,30.00,SE,134,0.0,2.0,90,0.06,,---,0.21,VWS V14.01,2013-01-01 08:39:00,
2013-01-01 02:40:00,39.3,36.6,30.00,SE,134,0.0,2.0,90,0.06,,---,0.21,VWS V14.01,2013-01-01 08:40:00,
2013-01-01 02:44:00,39.5,36.8,30.01,SE,134,0.0,3.0,90,0.05,,---,0.21,VWS V14.01,2013-01-01 08:44:00,
2013-01-01 02:45:00,39.5,36.8,30.01,SE,134,0.0,3.0,90,0.05,,---,0.21,VWS V14.01,2013-01-01 08:45:00,
2013-01-01 02:49:00,39.5,37.1,30.01,SE,134,0.0,2.0,91,0.05,,---,0.21,VWS V14.01,2013-01-01 08:49:00,
2013-01-01 02:50:00,39.5,37.1,30.01,SE,134,0.0,2.0,91,0.05,,---,0.21,VWS V14.01,2013-01-01 08:50:00,
2013-01-01 02:54:00,39.5,37.1,30.01,SE,134,0.0,0.0,91,0.04,,---,0.21,VWS V14.01,2013-01-01 08:54:00,
2013-01-01 02:55:00,39.5,37.1,30.01,SE,134,0.0,0.0,91,0.04,,---,0.21,VWS V14.01,2013-01-01 08:55:00,
2013-01-01 02:59:00,39.5,37.1,30.00,SE,134,0.0,3.0,91,0.04,,---,0.22,VWS V14.01,2013-01-01 08:59:00,
2013-01-01 03:00:00,39.5,37.1,30.00,SE,134,0.0,3.0,91,0.04,,---,0.22,VWS V14.01,2013-01-01 09:00:00,
2013-01-01 03:04:00,39.5,37.1,30.00,SE,134,0.0,0.0,91,0.03,,---,0.22,VWS V14.01,2013-01-01 09:04:00,
2013-01-01 03:05:00,39.5,37.1,30.00,SE,134,0.0,0.0,91,0.03,,---,0.22,VWS V14.01,2013-01-01 09:05:00,
2013-01-01 03:09:00,39.5,37.1,30.00,SE,134,0.0,0.0,91,0.03,,---,0.22,VWS V14.01,2013-01-01 09:09:00,
2013-01-01 03:10:00,39.5,37.1,30.00,SE,134,0.0,0.0,91,0.03,,---,0.22,VWS V14.01,2013-01-01 09:10:00,
2013-01-01 03:14:00,39.5,37.1,30.01,SE,134,0.0,0.0,91,0.02,,---,0.22,VWS V14.01,2013-01-01 09:14:00,
2013-01-01 03:15:00,39.5,37.1,30.01,SE,134,0.0,0.0,91,0.02,,---,0.22,VWS V14.01,2013-01-01 09:15:00,
2013-01-01 03:19:00,39.5,37.1,30.01,SE,134,0.0,0.0,91,0.03,,---,0.23,VWS V14.01,2013-01-01 09:19:00,
2013-01-01 03:20:00,39.5,37.1,30.01,SE,134,0.0,0.0,91,0.03,,---,0.23,VWS V14.01,2013-01-01 09:20:00,
2013-01-01 03:24:00,39.5,37.1,30.01,SE,134,0.0,0.0,91,0.03,,---,0.23,VWS V14.01,2013-01-01 09:24:00,
2013-01-01 03:25:00,39.5,37.1,30.01,SE,134,0.0,0.0,91,0.03,,---,0.23,VWS V14.01,2013-01-01 09:25:00,
2013-01-01 03:29:00,39.6,37.2,30.00,SE,134,0.0,0.0,91,0.03,,---,0.23,VWS V14.01,2013-01-01 09:29:00,
2013-01-01 03:30:00,39.6,37.2,30.00,SE,134,0.0,0.0,91,0.03,,---,0.23,VWS V14.01,2013-01-01 09:30:00,
2013-01-01 03:34:00,39.6,37.2,30.00,SE,134,0.0,0.0,91,0.02,,---,0.23,VWS V14.01,2013-01-01 09:34:00,
2013-01-01 03:35:00,39.6,37.2,30.00,SE,134,0.0,0.0,91,0.02,,---,0.23,VWS V14.01,2013-01-01 09:35:00,
2013-01-01 03:39:00,39.6,37.2,30.00,SE,134,0.0,1.0,91,0.03,,---,0.24,VWS V14.01,2013-01-01 09:39:00,
2013-01-01 03:40:00,39.6,37.2,30.00,SE,134,0.0,1.0,91,0.03,,---,0.24,VWS V14.01,2013-01-01 09:40:00,
2013-01-01 03:44:00,39.6,37.2,29.99,SE,134,0.0,1.0,91,0.03,,---,0.24,VWS V14.01,2013-01-01 09:44:00,
2013-01-01 03:45:00,39.6,37.2,29.99,SE,134,0.0,1.0,91,0.03,,---,0.24,VWS V14.01,2013-01-01 09:45:00,
2013-01-01 03:49:00,39.8,37.4,29.99,SE,134,0.0,0.0,91,0.03,,---,0.24,VWS V14.01,2013-01-01 09:49:00,
2013-01-01 03:50:00,39.8,37.4,29.99,SE,134,0.0,0.0,91,0.03,,---,0.24,VWS V14.01,2013-01-01 09:50:00,
2013-01-01 03:54:00,39.8,37.4,29.99,SE,134,0.0,0.0,91,0.03,,---,0.24,VWS V14.01,2013-01-01 09:54:00,
2013-01-01 03:55:00,39.8,37.4,29.99,SE,134,0.0,0.0,91,0.03,,---,0.24,VWS V14.01,2013-01-01 09:55:00,
2013-01-01 03:59:00,39.8,37.4,29.99,SE,134,0.0,0.0,91,0.03,,---,0.24,VWS V14.01,2013-01-01 09:59:00,
2013-01-01 04:00:00,39.8,37.4,29.99,SE,134,0.0,0.0,91,0.03,,---,0.24,VWS V14.01,2013-01-01 10:00:00,
2013-01-01 04:04:00,39.9,37.5,29.99,SE,134,0.0,1.0,91,0.02,,---,0.24,VWS V14.01,2013-01-01 10:04:00,
2013-01-01 04:05:00,39.9,37.5,29.99,SE,134,0.0,1.0,91,0.02,,---,0.24,VWS V14.01,2013-01-01 10:05:00,
2013-01-01 04:09:00,39.9,37.5,29.99,SE,134,0.0,0.0,91,0.03,,---,0.25,VWS V14.01,2013-01-01 10:09:00,
2013-01-01 04:10:00,39.9,37.5,29.99,SE,134,0.0,0.0,91,0.03,,---,0.25,VWS V14.01,2013-01-01 10:10:00,
2013-01-01 04:14:00,39.9,37.5,30.00,SE,134,0.0,0.0,91,0.03,,---,0.25,VWS V14.01,2013-01-01 10:14:00,
2013-01-01 04:15:00,39.9,37.5,30.00,SE,134,0.0,0.0,91,0.03,,---,0.25,VWS V14.01,2013-01-01 10:15:00,
2013-01-01 04:19:00,40.1,38.0,30.00,SE,134,0.0,0.0,92,0.03,,---,0.25,VWS V14.01,2013-01-01 10:19:00,
2013-01-01 04:20:00,40.1,38.0,30.00,SE,134,0.0,0.0,92,0.03,,---,0.25,VWS V14.01,2013-01-01 10:20:00,
2013-01-01 04:24:00,40.1,38.0,30.00,SE,134,0.0,0.0,92,0.02,,---,0.25,VWS V14.01,2013-01-01 10:24:00,
2013-01-01 04:25:00,40.1,38.0,30.00,SE,134,0.0,0.0,92,0.02,,---,0.25,VWS V14.01,2013-01-01 10:25:00,
2013-01-01 04:29:00,40.1,38.0,30.01,SE,134,0.0,0.0,92,0.03,,---,0.26,VWS V14.01,2013-01-01 10:29:00,
2013-01-01 04:30:00,40.1,38.0,30.01,SE,134,0.0,0.0,92,0.03,,---,0.26,VWS V14.01,2013-01-01 10:30:00,
2013-01-01 04:34:00,40.2,38.1,30.01,SE,134,0.0,0.0,92,0.03,,---,0.26,VWS V14.01,2013-01-01 10:34:00,
2013-01-01 04:35:00,40.2,38.1,30.01,SE,134,0.0,0.0,92,0.03,,---,0.26,VWS V14.01,2013-01-01 10:35:00,
2013-01-01 04:39:00,40.2,38.1,30.01,SE,134,0.0,0.0,92,0.03,,---,0.26,VWS V14.01,2013-01-01 10:39:00,
2013-01-01 04:40:00,40.2,38.1,30.01,SE,134,0.0,0.0,92,0.03,,---,0.26,VWS V14.01,2013-01-01 10:40:00,
2013-01-01 04:44:00,40.3,38.2,30.01,SE,134,0.0,2.0,92,0.02,,---,0.26,VWS V14.01,2013-01-01 10:44:00,
2013-01-01 04:45:00,40.3,38.2,30.01,SE,134,0.0,2.0,92,0.02,,---,0.26,VWS V14.01,2013-01-01 10:45:00,
2013-01-01 04:49:00,40.5,38.4,30.01,SE,134,0.0,2.0,92,0.02,,---,0.26,VWS V14.01,2013-01-01 10:49:00,
2013-01-01 04:50:00,40.5,38.4,30.01,SE,134,0.0,2.0,92,0.02,,---,0.26,VWS V14.01,2013-01-01 10:50:00,
2013-01-01 04:54:00,40.5,38.4,30.01,SE,133,0.0,2.0,92,0.02,,---,0.26,VWS V14.01,2013-01-01 10:54:00,
2013-01-01 04:55:00,40.5,38.4,30.01,SE,133,0.0,2.0,92,0.02,,---,0.26,VWS V14.01,2013-01-01 10:55:00,
2013-01-01 04:59:00,40.6,38.5,30.00,SE,133,0.0,0.0,92,0.02,,---,0.26,VWS V14.01,2013-01-01 10:59:00,
2013-01-01 05:00:00,40.6,38.5,30.00,SE,133,0.0,0.0,92,0.02,,---,0.26,VWS V14.01,2013-01-01 11:00:00,
2013-01-01 05:04:00,40.6,38.5,30.00,SE,133,0.0,1.0,92,0.02,,---,0.26,VWS V14.01,2013-01-01 11:04:00,
2013-01-01 05:05:00,40.6,38.5,30.00,SE,133,0.0,1.0,92,0.02,,---,0.26,VWS V14.01,2013-01-01 11:05:00,
2013-01-01 05:09:00,40.6,38.5,30.00,SE,133,0.0,0.0,92,0.02,,---,0.26,VWS V14.01,2013-01-01 11:09:00,
2013-01-01 05:10:00,40.6,38.5,30.00,SE,133,0.0,0.0,92,0.02,,---,0.26,VWS V14.01,2013-01-01 11:10:00,
2013-01-01 05:14:00,40.6,38.5,30.00,SE,133,0.0,0.0,92,0.01,,---,0.26,VWS V14.01,2013-01-01 11:14:00,
2013-01-01 05:15:00,40.6,38.5,30.00,SE,133,0.0,0.0,92,0.01,,---,0.26,VWS V14.01,2013-01-01 11:15:00,
2013-01-01 05:19:00,40.8,38.7,30.00,SE,136,0.0,2.0,92,0.01,,---,0.26,VWS V14.01,2013-01-01 11:19:00,
2013-01-01 05:20:00,40.8,38.7,30.00,SE,136,0.0,2.0,92,0.01,,---,0.26,VWS V14.01,2013-01-01 11:20:00,
2013-01-01 05:24:00,40.8,38.7,30.00,SE,136,0.0,0.0,92,0.01,,---,0.26,VWS V14.01,2013-01-01 11:24:00,
2013-01-01 05:25:00,40.8,38.7,30.00,SE,136,0.0,0.0,92,0.01,,---,0.26,VWS V14.01,2013-01-01 11:25:00,
2013-01-01 05:29:00,40.8,38.7,30.02,SE,136,0.0,0.0,92,0.01,,---,0.26,VWS V14.01,2013-01-01 11:29:00,
2013-01-01 05:30:00,40.8,38.7,30.02,SE,136,0.0,0.0,92,0.01,,---,0.26,VWS V14.01,2013-01-01 11:30:00,
2013-01-01 05:34:00,40.9,38.8,30.02,SE,136,0.0,0.0,92,0.00,,---,0.26,VWS V14.01,2013-01-01 11:34:00,
2013-01-01 05:35:00,40.9,38.8,30.02,SE,136,0.0,0.0,92,0.00,,---,0.26,VWS V14.01,2013-01-01 11:35:00,
2013-01-01 05:39:00,40.9,38.8,30.02,SE,136,0.0,0.0,92,0.01,,---,0.27,VWS V14.01,2013-01-01 11:39:00,
2013-01-01 05:40:00,40.9,38.8,30.02,SE,136,0.0,0.0,92,0.01,,---,0.27,VWS V14.01,2013-01-01 11:40:00,
2013-01-01 05:44:00,40.9,38.8,30.02,SE,136,0.0,0.0,92,0.01,,---,0.27,VWS V14.01,2013-01-01 11:44:00,
2013-01-01 05:45:00,40.9,38.8,30.02,SE,136,0.0,0.0,92,0.01,,---,0.27,VWS V14.01,2013-01-01 11:45:00,
2013-01-01 05:49:00,40.9,38.8,30.02,SE,136,0.0,0.0,92,0.01,,---,0.27,VWS V14.01,2013-01-01 11:49:00,
2013-01-01 05:50:00,40.9,38.8,30.02,SE,136,0.0,0.0,92,0.01,,---,0.27,VWS V14.01,2013-01-01 11:50:00,
2013-01-01 05:54:00,40.9,38.8,30.02,SE,136,0.0,0.0,92,0.01,,---,0.27,VWS V14.01,2013-01-01 11:54:00,
2013-01-01 05:55:00,40.9,38.8,30.02,SE,136,0.0,0.0,92,0.01,,---,0.27,VWS V14.01,2013-01-01 11:55:00,
2013-01-01 05:59:00,40.9,38.8,30.02,SE,136,0.0,0.0,92,0.01,,---,0.27,VWS V14.01,2013-01-01 11:59:00,
2013-01-01 06:00:00,40.9,38.8,30.02,SE,136,0.0,0.0,92,0.01,,---,0.27,VWS V14.01,2013-01-01 12:00:00,
2013-01-01 06:04:00,40.9,38.8,30.02,SE,136,0.0,0.0,92,0.01,,---,0.27,VWS V14.01,2013-01-01 12:04:00,
2013-01-01 06:05:00,40.9,38.8,30.02,SE,136,0.0,0.0,92,0.01,,---,0.27,VWS V14.01,2013-01-01 12:05:00,
2013-01-01 06:09:00,40.9,38.8,30.02,SE,136,0.0,1.0,92,0.01,,---,0.27,VWS V14.01,2013-01-01 12:09:00,
2013-01-01 06:10:00,40.9,38.8,30.02,SE,136,0.0,1.0,92,0.01,,---,0.27,VWS V14.01,2013-01-01 12:10:00,
2013-01-01 06:14:00,40.9,38.8,30.02,SE,136,0.0,2.0,92,0.01,,---,0.27,VWS V14.01,2013-01-01 12:14:00,
2013-01-01 06:15:00,40.9,38.8,30.02,SE,136,0.0,2.0,92,0.01,,---,0.27,VWS V14.01,2013-01-01 12:15:00,
2013-01-01 06:19:00,40.9,38.8,30.02,SE,136,0.0,1.0,92,0.01,,---,0.27,VWS V14.01,2013-01-01 12:19:00,
2013-01-01 06:20:00,40.9,38.8,30.02,SE,136,0.0,1.0,92,0.01,,---,0.27,VWS V14.01,2013-01-01 12:20:00,
2013-01-01 06:24:00,40.9,38.8,30.02,SE,136,0.0,1.0,92,0.01,,---,0.27,VWS V14.01,2013-01-01 12:24:00,
2013-01-01 06:25:00,40.9,38.8,30.02,SE,136,0.0,1.0,92,0.01,,---,0.27,VWS V14.01,2013-01-01 12:25:00,
2013-01-01 06:29:00,40.9,38.8,30.02,SE,136,0.0,1.0,92,0.01,,---,0.27,VWS V14.01,2013-01-01 12:29:00,
2013-01-01 06:30:00,40.9,38.8,30.02,SE,136,0.0,1.0,92,0.01,,---,0.27,VWS V14.01,2013-01-01 12:30:00,
2013-01-01 06:34:00,40.9,38.8,30.02,SE,136,0.0,4.0,92,0.01,,---,0.27,VWS V14.01,2013-01-01 12:34:00,
2013-01-01 06:35:00,40.9,38.8,30.02,SE,136,0.0,4.0,92,0.01,,---,0.27,VWS V14.01,2013-01-01 12:35:00,
2013-01-01 06:39:00,40.9,38.8,30.02,SE,136,0.0,0.0,92,0.01,,---,0.27,VWS V14.01,2013-01-01 12:39:00,
2013-01-01 06:40:00,40.9,38.8,30.02,SE,136,0.0,0.0,92,0.01,,---,0.27,VWS V14.01,2013-01-01 12:40:00,
2013-01-01 06:44:00,40.9,38.8,30.01,SE,136,0.0,0.0,92,0.00,,---,0.27,VWS V14.01,2013-01-01 12:44:00,
2013-01-01 06:45:00,40.9,38.8,30.01,SE,136,0.0,0.0,92,0.00,,---,0.27,VWS V14.01,2013-01-01 12:45:00,
2013-01-01 06:49:00,40.9,38.8,30.01,SE,125,0.0,2.0,92,0.00,,---,0.27,VWS V14.01,2013-01-01 12:49:00,
2013-01-01 06:50:00,40.9,38.8,30.01,SE,125,0.0,2.0,92,0.00,,---,0.27,VWS V14.01,2013-01-01 12:50:00,
2013-01-01 06:54:00,40.9,38.8,30.01,SE,125,0.0,0.0,92,0.00,,---,0.27,VWS V14.01,2013-01-01 12:54:00,
2013-01-01 06:55:00,40.9,38.8,30.01,SE,125,0.0,0.0,92,0.00,,---,0.27,VWS V14.01,2013-01-01 12:55:00,
2013-01-01 06:59:00,40.9,38.8,30.02,SE,125,0.0,2.0,92,0.00,,---,0.27,VWS V14.01,2013-01-01 12:59:00,
2013-01-01 07:00:00,40.9,38.8,30.02,SE,125,0.0,2.0,92,0.00,,---,0.27,VWS V14.01,2013-01-01 13:00:00,
2013-01-01 07:04:00,40.9,38.8,30.02,SE,125,0.0,0.0,92,0.00,,---,0.27,VWS V14.01,2013-01-01 13:04:00,
2013-01-01 07:05:00,40.9,38.8,30.02,SE,125,0.0,0.0,92,0.00,,---,0.27,VWS V14.01,2013-01-01 13:05:00,
2013-01-01 07:09:00,40.9,38.8,30.02,SE,125,0.0,0.0,92,0.00,,---,0.27,VWS V14.01,2013-01-01 13:09:00,
2013-01-01 07:10:00,40.9,38.8,30.02,SE,125,0.0,0.0,92,0.00,,---,0.27,VWS V14.01,2013-01-01 13:10:00,
2013-01-01 07:14:00,40.9,38.8,30.02,SE,125,0.0,0.0,92,0.00,,---,0.27,VWS V14.01,2013-01-01 13:14:00,
2013-01-01 07:15:00,40.9,38.8,30.02,SE,125,0.0,0.0,92,0.00,,---,0.27,VWS V14.01,2013-01-01 13:15:00,
2013-01-01 07:19:00,40.9,39.0,30.02,SE,125,0.0,2.0,93,0.00,,---,0.27,VWS V14.01,2013-01-01 13:19:00,
2013-01-01 07:20:00,40.9,39.0,30.02,SE,125,0.0,2.0,93,0.00,,---,0.27,VWS V14.01,2013-01-01 13:20:00,
2013-01-01 07:24:00,40.9,39.0,30.02,ENE,70,0.0,3.0,93,0.00,,---,0.27,VWS V14.01,2013-01-01 13:24:00,
2013-01-01 07:25:00,40.9,39.0,30.02,ENE,70,0.0,3.0,93,0.00,,---,0.27,VWS V14.01,2013-01-01 13:25:00,
2013-01-01 07:29:00,40.9,38.8,30.01,ENE,57,0.0,2.0,92,0.00,,---,0.27,VWS V14.01,2013-01-01 13:29:00,
2013-01-01 07:30:00,40.9,38.8,30.01,ENE,57,0.0,2.0,92,0.00,,---,0.27,VWS V14.01,2013-01-01 13:30:00,
2013-01-01 07:34:00,40.8,38.9,30.01,ENE,57,2.0,2.0,93,0.00,,---,0.27,VWS V14.01,2013-01-01 13:34:00,
2013-01-01 07:35:00,40.8,38.9,30.01,ENE,57,2.0,2.0,93,0.00,,---,0.27,VWS V14.01,2013-01-01 13:35:00,
2013-01-01 07:39:00,40.8,38.9,30.01,ENE,57,0.0,2.0,93,0.00,,---,0.27,VWS V14.01,2013-01-01 13:39:00,
2013-01-01 07:40:00,40.8,38.9,30.01,ENE,57,0.0,2.0,93,0.00,,---,0.27,VWS V14.01,2013-01-01 13:40:00,
2013-01-01 07:44:00,40.8,38.9,30.02,ENE,57,0.0,2.0,93,0.00,,---,0.27,VWS V14.01,2013-01-01 13:44:00,
2013-01-01 07:45:00,40.8,38.9,30.02,ENE,57,0.0,2.0,93,0.00,,---,0.27,VWS V14.01,2013-01-01 13:45:00,
2013-01-01 07:49:00,40.8,38.9,30.02,ENE,57,0.0,1.0,93,0.00,,---,0.27,VWS V14.01,2013-01-01 13:49:00,
2013-01-01 07:50:00,40.8,38.9,30.02,ENE,57,0.0,1.0,93,0.00,,---,0.27,VWS V14.01,2013-01-01 13:50:00,
2013-01-01 07:54:00,40.8,38.9,30.02,NW,312,0.0,2.0,93,0.00,,---,0.27,VWS V14.01,2013-01-01 13:54:00,
2013-01-01 07:55:00,40.8,38.9,30.02,NW,312,0.0,2.0,93,0.00,,---,0.27,VWS V14.01,2013-01-01 13:55:00,
2013-01-01 07:59:00,40.8,38.9,30.02,NW,312,0.0,2.0,93,0.00,,---,0.27,VWS V14.01,2013-01-01 13:59:00,
2013-01-01 08:00:00,40.8,38.9,30.02,NW,312,0.0,2.0,93,0.00,,---,0.27,VWS V14.01,2013-01-01 14:00:00,
2013-01-01 08:04:00,40.6,38.7,30.02,NW,312,0.0,0.0,93,0.00,,---,0.27,VWS V14.01,2013-01-01 14:04:00,
2013-01-01 08:05:00,40.6,38.7,30.02,NW,312,0.0,0.0,93,0.00,,---,0.27,VWS V14.01,2013-01-01 14:05:00,
2013-01-01 08:09:00,40.6,38.7,30.02,NW,312,0.0,1.0,93,0.00,,---,0.27,VWS V14.01,2013-01-01 14:09:00,
2013-01-01 08:10:00,40.6,38.7,30.02,NW,312,0.0,1.0,93,0.00,,---,0.27,VWS V14.01,2013-01-01 14:10:00,
2013-01-01 08:14:00,40.6,38.7,30.01,NW,312,1.0,2.0,93,0.00,,---,0.27,VWS V14.01,2013-01-01 14:14:00,
2013-01-01 08:15:00,40.6,38.7,30.01,NW,312,1.0,2.0,93,0.00,,---,0.27,VWS V14.01,2013-01-01 14:15:00,
2013-01-01 08:19:00,40.6,38.7,30.01,NW,312,0.0,2.0,93,0.00,,---,0.27,VWS V14.01,2013-01-01 14:19:00,
2013-01-01 08:20:00,40.6,38.7,30.01,NW,312,0.0,2.0,93,0.00,,---,0.27,VWS V14.01,2013-01-01 14:20:00,
2013-01-01 08:24:00,40.6,38.7,30.01,NW,312,0.0,0.0,93,0.00,,---,0.27,VWS V14.01,2013-01-01 14:24:00,
2013-01-01 08:25:00,40.6,38.7,30.01,NW,312,0.0,0.0,93,0.00,,---,0.27,VWS V14.01,2013-01-01 14:25:00,
2013-01-01 08:29:00,40.5,38.6,30.02,NW,312,0.0,0.0,93,0.00,,---,0.27,VWS V14.01,2013-01-01 14:29:00,
2013-01-01 08:30:00,40.5,38.6,30.02,NW,312,0.0,0.0,93,0.00,,---,0.27,VWS V14.01,2013-01-01 14:30:00,
2013-01-01 08:34:00,40.5,38.6,30.02,NNW,328,0.0,5.0,93,0.00,,---,0.27,VWS V14.01,2013-01-01 14:34:00,
2013-01-01 08:35:00,40.5,38.6,30.02,NNW,328,0.0,5.0,93,0.00,,---,0.27,VWS V14.01,2013-01-01 14:35:00,
2013-01-01 08:39:00,40.5,38.6,30.02,NNW,344,1.0,3.0,93,0.00,,---,0.27,VWS V14.01,2013-01-01 14:39:00,
2013-01-01 08:40:00,40.5,38.6,30.02,NNW,344,1.0,3.0,93,0.00,,---,0.27,VWS V14.01,2013-01-01 14:40:00,
2013-01-01 08:44:00,40.5,38.6,30.00,NNW,348,0.0,2.0,93,0.00,,---,0.27,VWS V14.01,2013-01-01 14:44:00,
2013-01-01 08:45:00,40.5,38.6,30.00,NNW,348,0.0,2.0,93,0.00,,---,0.27,VWS V14.01,2013-01-01 14:45:00,
2013-01-01 08:49:00,40.5,38.6,30.00,NNW,348,0.0,0.0,93,0.00,,---,0.27,VWS V14.01,2013-01-01 14:49:00,
2013-01-01 08:50:00,40.5,38.6,30.00,NNW,348,0.0,0.0,93,0.00,,---,0.27,VWS V14.01,2013-01-01 14:50:00,
2013-01-01 08:54:00,40.5,38.6,30.00,NNW,348,0.0,3.0,93,0.00,,---,0.27,VWS V14.01,2013-01-01 14:54:00,
2013-01-01 08:55:00,40.5,38.6,30.00,NNW,348,0.0,3.0,93,0.00,,---,0.27,VWS V14.01,2013-01-01 14:55:00,
2013-01-01 08:59:00,40.5,38.6,30.02,NNW,348,2.0,2.0,93,0.00,,---,0.27,VWS V14.01,2013-01-01 14:59:00,
2013-01-01 09:00:00,40.5,38.6,30.02,NNW,348,2.0,2.0,93,0.00,,---,0.27,VWS V14.01,2013-01-01 15:00:00,
2013-01-01 09:04:00,40.5,38.6,30.02,ESE,109,2.0,5.0,93,0.00,,---,0.27,VWS V14.01,2013-01-01 15:04:00,
2013-01-01 09:05:00,40.5,38.6,30.02,ESE,109,2.0,5.0,93,0.00,,---,0.27,VWS V14.01,2013-01-01 15:05:00,
2013-01-01 09:09:00,40.5,38.6,30.02,East,81,0.0,6.0,93,0.00,,---,0.27,VWS V14.01,2013-01-01 15:09:00,
2013-01-01 09:10:00,40.5,38.6,30.02,East,81,0.0,6.0,93,0.00,,---,0.27,VWS V14.01,2013-01-01 15:10:00,
2013-01-01 09:14:00,40.3,38.4,30.03,East,81,0.0,0.0,93,0.00,,---,0.27,VWS V14.01,2013-01-01 15:14:00,
2013-01-01 09:15:00,40.3,38.4,30.03,East,81,0.0,0.0,93,0.00,,---,0.27,VWS V14.01,2013-01-01 15:15:00,
2013-01-01 09:19:00,40.3,38.4,30.03,East,81,0.0,0.0,93,0.00,,---,0.27,VWS V14.01,2013-01-01 15:19:00,
2013-01-01 09:20:00,40.3,38.4,30.03,East,81,0.0,0.0,93,0.00,,---,0.27,VWS V14.01,2013-01-01 15:20:00,
2013-01-01 09:24:00,40.3,38.4,30.03,East,81,0.0,2.0,93,0.00,,---,0.27,VWS V14.01,2013-01-01 15:24:00,
2013-01-01 09:25:00,40.3,38.4,30.03,East,81,0.0,2.0,93,0.00,,---,0.27,VWS V14.01,2013-01-01 15:25:00,
2013-01-01 09:29:00,40.3,38.4,30.02,East,81,0.0,2.0,93,0.00,,---,0.27,VWS V14.01,2013-01-01 15:29:00,
2013-01-01 09:30:00,40.3,38.4,30.02,East,81,0.0,2.0,93,0.00,,---,0.27,VWS V14.01,2013-01-01 15:30:00,
2013-01-01 09:34:00,40.2,38.3,30.02,East,81,0.0,2.0,93,0.00,,---,0.27,VWS V14.01,2013-01-01 15:34:00,
2013-01-01 09:35:00,40.2,38.3,30.02,East,81,0.0,2.0,93,0.00,,---,0.27,VWS V14.01,2013-01-01 15:35:00,
2013-01-01 09:39:00,40.2,38.3,30.02,East,81,0.0,1.0,93,0.00,,---,0.27,VWS V14.01,2013-01-01 15:39:00,
2013-01-01 09:40:00,40.2,38.3,30.02,East,81,0.0,1.0,93,0.00,,---,0.27,VWS V14.01,2013-01-01 15:40:00,
2013-01-01 09:44:00,40.2,38.3,30.03,ENE,69,0.0,2.0,93,0.00,,---,0.27,VWS V14.01,2013-01-01 15:44:00,
2013-01-01 09:45:00,40.2,38.3,30.03,ENE,69,0.0,2.0,93,0.00,,---,0.27,VWS V14.01,2013-01-01 15:45:00,
2013-01-01 09:49:00,40.1,38.2,30.03,ENE,69,0.0,1.0,93,0.00,,---,0.27,VWS V14.01,2013-01-01 15:49:00,
2013-01-01 09:50:00,40.1,38.2,30.03,ENE,69,0.0,1.0,93,0.00,,---,0.27,VWS V14.01,2013-01-01 15:50:00,
2013-01-01 09:54:00,40.1,38.2,30.03,ENE,69,0.0,2.0,93,0.00,,---,0.27,VWS V14.01,2013-01-01 15:54:00,
2013-01-01 09:55:00,40.1,38.2,30.03,ENE,69,0.0,2.0,93,0.00,,---,0.27,VWS V14.01,2013-01-01 15:55:00,
2013-01-01 09:59:00,40.1,38.2,30.01,ENE,69,0.0,1.0,93,0.00,,---,0.27,VWS V14.01,2013-01-01 15:59:00,
2013-01-01 10:00:00,40.1,38.2,30.01,ENE,69,0.0,1.0,93,0.00,,---,0.27,VWS V14.01,2013-01-01 16:00:00,
2013-01-01 10:04:00,40.1,38.2,30.01,North,355,2.0,2.0,93,0.00,,---,0.27,VWS V14.01,2013-01-01 16:04:00,
2013-01-01 10:05:00,40.1,38.2,30.01,North,355,2.0,4.0,93,0.00,,---,0.27,VWS V14.01,2013-01-01 16:05:00,
2013-01-01 10:09:00,39.9,38.0,30.01,NNW,330,2.0,3.0,93,0.00,,---,0.27,VWS V14.01,2013-01-01 16:09:00,
2013-01-01 10:10:00,39.9,38.0,30.01,NW,321,3.0,5.0,93,0.00,,---,0.27,VWS V14.01,2013-01-01 16:10:00,
2013-01-01 10:14:00,39.9,38.0,30.06,NNW,337,1.0,2.0,93,0.00,,---,0.27,VWS V14.01,2013-01-01 16:14:00,
2013-01-01 10:15:00,39.9,38.0,30.06,NE,43,2.0,6.0,93,0.00,,---,0.27,VWS V14.01,2013-01-01 16:15:00,
2013-01-01 10:19:00,39.6,37.8,30.06,NNW,333,4.0,4.0,93,0.00,,---,0.27,VWS V14.01,2013-01-01 16:19:00,
2013-01-01 10:20:00,39.6,37.8,30.06,NNW,333,2.0,10.0,93,0.00,,---,0.27,VWS V14.01,2013-01-01 16:20:00,
2013-01-01 10:24:00,39.5,37.7,30.06,WNW,292,3.0,5.0,93,0.00,,---,0.27,VWS V14.01,2013-01-01 16:24:00,
2013-01-01 10:25:00,39.5,37.7,30.06,North,355,2.0,6.0,93,0.00,,---,0.27,VWS V14.01,2013-01-01 16:25:00,
2013-01-01 10:29:00,39.3,37.5,30.06,NW,319,1.0,3.0,93,0.00,,---,0.27,VWS V14.01,2013-01-01 16:29:00,
2013-01-01 10:30:00,39.3,37.5,30.06,NNW,331,1.0,6.0,93,0.00,,---,0.27,VWS V14.01,2013-01-01 16:30:00,
2013-01-01 10:34:00,39.3,37.5,30.06,NNW,331,4.0,4.0,93,0.00,,---,0.27,VWS V14.01,2013-01-01 16:34:00,
2013-01-01 10:35:00,39.3,37.5,30.06,NNW,342,2.0,7.0,93,0.00,,---,0.27,VWS V14.01,2013-01-01 16:35:00,
2013-01-01 10:39:00,39.3,37.5,30.06,NNW,327,1.0,2.0,93,0.00,,---,0.27,VWS V14.01,2013-01-01 16:39:00,
2013-01-01 10:40:00,39.3,37.5,30.06,NNW,327,2.0,8.0,93,0.00,,---,0.27,VWS V14.01,2013-01-01 16:40:00,
2013-01-01 10:44:00,39.2,37.3,30.07,North,360,1.0,1.0,93,0.00,,---,0.27,VWS V14.01,2013-01-01 16:44:00,
2013-01-01 10:45:00,39.2,37.3,30.07,North,360,0.0,5.0,93,0.00,,---,0.27,VWS V14.01,2013-01-01 16:45:00,
2013-01-01 10:49:00,39.1,37.2,30.07,North,350,0.0,0.0,93,0.00,,---,0.27,VWS V14.01,2013-01-01 16:49:00,
2013-01-01 10:50:00,39.1,37.2,30.07,North,350,0.0,5.0,93,0.00,,---,0.27,VWS V14.01,2013-01-01 16:50:00,
2013-01-01 10:54:00,39.1,37.2,30.07,NNW,327,0.0,0.0,93,0.00,,---,0.27,VWS V14.01,2013-01-01 16:54:00,
2013-01-01 10:55:00,39.1,37.2,30.07,NNW,327,0.0,5.0,93,0.00,,---,0.27,VWS V14.01,2013-01-01 16:55:00,
2013-01-01 10:59:00,39.1,37.2,30.06,NNW,327,0.0,0.0,93,0.00,,---,0.27,VWS V14.01,2013-01-01 16:59:00,
2013-01-01 11:00:00,39.1,37.2,30.06,NNW,327,0.0,2.0,93,0.00,,---,0.27,VWS V14.01,2013-01-01 17:00:00,
2013-01-01 11:04:00,39.1,37.2,30.06,NW,304,0.0,0.0,93,0.00,,---,0.27,VWS V14.01,2013-01-01 17:04:00,
2013-01-01 11:05:00,39.1,37.2,30.06,NW,304,0.0,3.0,93,0.00,,---,0.27,VWS V14.01,2013-01-01 17:05:00,
2013-01-01 11:09:00,39.1,37.2,30.06,NW,304,0.0,0.0,93,0.00,,---,0.27,VWS V14.01,2013-01-01 17:09:00,
2013-01-01 11:10:00,39.1,37.2,30.06,NW,304,0.0,1.0,93,0.00,,---,0.27,VWS V14.01,2013-01-01 17:10:00,
2013-01-01 11:14:00,39.1,37.2,30.04,NNW,342,0.0,0.0,93,0.00,,---,0.27,VWS V14.01,2013-01-01 17:14:00,
2013-01-01 11:15:00,39.1,37.2,30.04,NNW,342,0.0,2.0,93,0.00,,---,0.27,VWS V14.01,2013-01-01 17:15:00,
2013-01-01 11:19:00,38.9,37.0,30.04,NNW,345,0.0,0.0,93,0.00,,---,0.27,VWS V14.01,2013-01-01 17:19:00,
2013-01-01 11:20:00,38.9,37.0,30.04,NNW,345,0.0,1.0,93,0.00,,---,0.27,VWS V14.01,2013-01-01 17:20:00,
2013-01-01 11:25:00,38.9,37.0,30.04,NNW,345,1.0,2.0,93,0.00,,---,0.27,VWS V14.01,2013-01-01 17:25:00,
2013-01-01 11:30:00,38.9,37.0,30.01,NNW,345,1.0,1.0,93,0.00,,---,0.27,VWS V14.01,2013-01-01 17:30:00,
2013-01-01 11:35:00,38.8,37.0,30.01,NNW,345,0.0,0.0,93,0.00,,---,0.27,VWS V14.01,2013-01-01 17:35:00,
2013-01-01 11:40:00,38.9,37.0,30.01,NW,325,1.0,2.0,93,0.00,,---,0.27,VWS V14.01,2013-01-01 17:40:00,
2013-01-01 11:45:00,38.8,37.0,30.01,NW,325,0.0,0.0,93,0.00,,---,0.27,VWS V14.01,2013-01-01 17:45:00,
2013-01-01 11:50:00,38.8,37.0,30.01,NW,308,1.0,1.0,93,0.00,,---,0.27,VWS V14.01,2013-01-01 17:50:00,
2013-01-01 11:55:00,38.9,37.0,30.01,NNW,334,0.0,3.0,93,0.00,,---,0.27,VWS V14.01,2013-01-01 17:55:00,
2013-01-01 12:00:00,38.8,37.0,30.02,North,9,0.0,0.0,93,0.00,,---,0.27,VWS V14.01,2013-01-01 18:00:00,
2013-01-01 12:05:00,38.8,37.0,30.02,North,9,0.0,0.0,93,0.00,,---,0.27,VWS V14.01,2013-01-01 18:05:00,
2013-01-01 12:10:00,38.8,37.0,30.02,NNW,338,0.0,0.0,93,0.00,,---,0.27,VWS V14.01,2013-01-01 18:10:00,
2013-01-01 12:15:00,38.8,37.0,30.04,NW,314,3.0,6.0,93,0.00,,---,0.27,VWS V14.01,2013-01-01 18:15:00,
2013-01-01 12:20:00,38.6,36.8,30.04,NW,323,0.0,1.0,93,0.00,,---,0.27,VWS V14.01,2013-01-01 18:20:00,
2013-01-01 12:25:00,38.6,36.8,30.04,NNW,335,2.0,5.0,93,0.00,,---,0.27,VWS V14.01,2013-01-01 18:25:00,
2013-01-01 12:30:00,38.5,36.7,30.03,NNW,344,3.0,4.0,93,0.00,,---,0.27,VWS V14.01,2013-01-01 18:30:00,
2013-01-01 12:35:00,38.5,36.7,30.03,NNW,333,1.0,2.0,93,0.00,,---,0.27,VWS V14.01,2013-01-01 18:35:00,
2013-01-01 12:40:00,38.5,36.7,30.03,NNW,333,0.0,1.0,93,0.00,,---,0.27,VWS V14.01,2013-01-01 18:40:00,
2013-01-01 12:45:00,38.5,36.7,30.03,NW,309,0.0,0.0,93,0.01,,---,0.28,VWS V14.01,2013-01-01 18:45:00,
2013-01-01 12:50:00,38.5,36.7,30.03,North,360,0.0,0.0,93,0.01,,---,0.28,VWS V14.01,2013-01-01 18:50:00,
2013-01-01 12:55:00,38.5,36.7,30.03,North,355,0.0,2.0,93,0.01,,---,0.28,VWS V14.01,2013-01-01 18:55:00,
2013-01-01 13:00:00,38.5,36.7,30.01,NW,310,2.0,3.0,93,0.02,,---,0.29,VWS V14.01,2013-01-01 19:00:00,
2013-01-01 13:05:00,38.5,36.7,30.01,NNW,338,0.0,0.0,93,0.02,,---,0.29,VWS V14.01,2013-01-01 19:05:00,
2013-01-01 13:10:00,38.5,36.7,30.01,NNW,338,0.0,2.0,93,0.02,,---,0.29,VWS V14.01,2013-01-01 19:10:00,
2013-01-01 13:15:00,38.5,36.7,30.02,NW,325,0.0,0.0,93,0.02,,---,0.29,VWS V14.01,2013-01-01 19:15:00,
2013-01-01 13:20:00,38.5,36.7,30.02,NW,319,0.0,2.0,93,0.02,,---,0.29,VWS V14.01,2013-01-01 19:20:00,
2013-01-01 13:25:00,38.5,36.7,30.02,NNW,337,0.0,2.0,93,0.02,,---,0.29,VWS V14.01,2013-01-01 19:25:00,
2013-01-01 13:30:00,38.5,36.7,30.01,North,9,1.0,2.0,93,0.02,,---,0.29,VWS V14.01,2013-01-01 19:30:00,
2013-01-01 13:35:00,38.5,36.7,30.01,NNW,336,0.0,2.0,93,0.02,,---,0.29,VWS V14.01,2013-01-01 19:35:00,
2013-01-01 13:40:00,38.5,36.7,30.01,NNW,344,0.0,3.0,93,0.02,,---,0.29,VWS V14.01,2013-01-01 19:40:00,
2013-01-01 13:45:00,38.3,36.5,30.02,NNW,329,3.0,4.0,93,0.01,,---,0.29,VWS V14.01,2013-01-01 19:45:00,
2013-01-01 13:50:00,38.3,36.5,30.02,NW,324,0.0,6.0,93,0.01,,---,0.29,VWS V14.01,2013-01-01 19:50:00,
2013-01-01 13:55:00,38.2,36.4,30.02,NNW,336,0.0,2.0,93,0.01,,---,0.29,VWS V14.01,2013-01-01 19:55:00,
2013-01-01 14:00:00,38.2,36.4,30.03,NW,322,1.0,5.0,93,0.01,,---,0.29,VWS V14.01,2013-01-01 20:00:00,
2013-01-01 14:05:00,38.2,36.4,30.03,NNW,340,2.0,5.0,93,0.00,,---,0.29,VWS V14.01,2013-01-01 20:05:00,
2013-01-01 14:10:00,38.2,36.4,30.03,North,350,4.0,5.0,93,0.00,,---,0.29,VWS V14.01,2013-01-01 20:10:00,
2013-01-01 14:15:00,38.2,36.4,30.02,NW,308,2.0,2.0,93,0.00,,---,0.29,VWS V14.01,2013-01-01 20:15:00,
2013-01-01 14:20:00,38.0,36.2,30.02,NNW,331,0.0,4.0,93,0.00,,---,0.29,VWS V14.01,2013-01-01 20:20:00,
2013-01-01 14:25:00,38.0,36.2,30.02,NNW,336,0.0,4.0,93,0.00,,---,0.29,VWS V14.01,2013-01-01 20:25:00,
2013-01-01 14:30:00,38.0,36.2,30.02,North,5,0.0,1.0,93,0.00,,---,0.29,VWS V14.01,2013-01-01 20:30:00,
2013-01-01 14:35:00,37.9,36.1,30.02,NNW,344,0.0,1.0,93,0.00,,---,0.29,VWS V14.01,2013-01-01 20:35:00,
2013-01-01 14:40:00,37.9,36.1,30.02,NNW,344,2.0,2.0,93,0.00,,---,0.29,VWS V14.01,2013-01-01 20:40:00,
2013-01-01 14:45:00,37.9,36.1,30.02,NNW,344,0.0,0.0,93,0.00,,---,0.29,VWS V14.01,2013-01-01 20:45:00,
2013-01-01 14:50:00,37.9,36.1,30.02,NNW,344,0.0,0.0,93,0.00,,---,0.29,VWS V14.01,2013-01-01 20:50:00,
2013-01-01 14:55:00,37.9,36.1,30.02,NNW,344,0.0,0.0,93,0.00,,---,0.29,VWS V14.01,2013-01-01 20:55:00,
2013-01-01 15:00:00,38.0,36.2,30.01,NNW,344,0.0,0.0,93,0.00,,---,0.29,VWS V14.01,2013-01-01 21:00:00,
2013-01-01 15:05:00,37.9,36.1,30.01,NNW,344,2.0,2.0,93,0.00,,---,0.29,VWS V14.01,2013-01-01 21:05:00,
2013-01-01 15:10:00,37.9,36.1,30.01,ENE,63,0.0,2.0,93,0.00,,---,0.29,VWS V14.01,2013-01-01 21:10:00,
2013-01-01 15:15:00,37.9,36.1,30.00,East,98,0.0,1.0,93,0.00,,---,0.29,VWS V14.01,2013-01-01 21:15:00,
2013-01-01 15:20:00,37.9,36.1,30.00,East,94,0.0,1.0,93,0.00,,---,0.29,VWS V14.01,2013-01-01 21:20:00,
2013-01-01 15:25:00,37.9,36.1,30.00,ESE,120,0.0,2.0,93,0.00,,---,0.29,VWS V14.01,2013-01-01 21:25:00,
2013-01-01 15:30:00,37.9,36.1,30.00,East,86,0.0,3.0,93,0.00,,---,0.29,VWS V14.01,2013-01-01 21:30:00,
2013-01-01 15:35:00,37.9,36.1,30.00,East,86,0.0,0.0,93,0.00,,---,0.29,VWS V14.01,2013-01-01 21:35:00,
2013-01-01 15:40:00,37.9,36.1,30.00,East,86,0.0,1.0,93,0.00,,---,0.29,VWS V14.01,2013-01-01 21:40:00,
2013-01-01 15:45:00,37.9,36.1,30.01,East,86,0.0,0.0,93,0.00,,---,0.29,VWS V14.01,2013-01-01 21:45:00,
2013-01-01 15:50:00,37.9,36.1,30.01,East,86,0.0,0.0,93,0.00,,---,0.29,VWS V14.01,2013-01-01 21:50:00,
2013-01-01 15:55:00,37.9,36.1,30.01,East,86,0.0,0.0,93,0.00,,---,0.29,VWS V14.01,2013-01-01 21:55:00,
2013-01-01 16:00:00,37.9,36.1,30.03,East,86,0.0,0.0,93,0.00,,---,0.29,VWS V14.01,2013-01-01 22:00:00,
2013-01-01 16:05:00,37.9,36.1,30.03,NNW,334,2.0,5.0,93,0.00,,---,0.29,VWS V14.01,2013-01-01 22:05:00,
2013-01-01 16:10:00,37.9,36.1,30.03,NE,34,2.0,5.0,93,0.00,,---,0.29,VWS V14.01,2013-01-01 22:10:00,
2013-01-01 16:11:00,37.9,36.1,30.03,NNW,331,0.0,3.0,93,0.00,,---,0.29,VWS V14.01,2013-01-01 22:11:00,
2013-01-01 16:15:00,37.9,36.1,30.03,NNW,331,0.0,1.0,93,0.00,,---,0.29,VWS V14.01,2013-01-01 22:15:00,
2013-01-01 16:20:00,37.9,36.1,30.03,NNW,342,0.0,5.0,93,0.00,,---,0.29,VWS V14.01,2013-01-01 22:20:00,
2013-01-01 16:21:00,37.9,36.1,30.03,NNW,342,0.0,0.0,93,0.00,,---,0.29,VWS V14.01,2013-01-01 22:21:00,
2013-01-01 16:25:00,37.9,36.1,30.03,NNW,342,0.0,0.0,93,0.00,,---,0.29,VWS V14.01,2013-01-01 22:25:00,
2013-01-01 16:30:00,37.9,36.1,30.03,NNW,342,0.0,1.0,93,0.00,,---,0.29,VWS V14.01,2013-01-01 22:30:00,
2013-01-01 16:35:00,37.9,36.1,30.03,NNW,342,0.0,0.0,93,0.00,,---,0.29,VWS V14.01,2013-01-01 22:35:00,
2013-01-01 16:40:00,37.9,36.1,30.03,NNW,342,0.0,3.0,93,0.00,,---,0.29,VWS V14.01,2013-01-01 22:40:00,
2013-01-01 16:45:00,37.9,36.1,30.03,NNW,342,0.0,3.0,93,0.00,,---,0.29,VWS V14.01,2013-01-01 22:45:00,
2013-01-01 16:46:00,37.9,36.1,30.03,NNW,342,0.0,0.0,93,0.00,,---,0.29,VWS V14.01,2013-01-01 22:46:00,
2013-01-01 16:50:00,37.9,36.1,30.03,NNW,342,0.0,0.0,93,0.00,,---,0.29,VWS V14.01,2013-01-01 22:50:00,
2013-01-01 16:51:00,37.9,36.1,30.03,NNW,342,0.0,0.0,93,0.00,,---,0.29,VWS V14.01,2013-01-01 22:51:00,
2013-01-01 16:55:00,37.8,36.0,30.03,NNW,342,0.0,1.0,93,0.00,,---,0.29,VWS V14.01,2013-01-01 22:55:00,
2013-01-01 16:56:00,37.8,36.0,30.03,NNW,342,0.0,2.0,93,0.00,,---,0.29,VWS V14.01,2013-01-01 22:56:00,
2013-01-01 17:00:00,37.8,36.0,30.03,NNW,342,0.0,2.0,93,0.00,,---,0.29,VWS V14.01,2013-01-01 23:00:00,
2013-01-01 17:01:00,37.8,36.0,30.03,NNW,342,0.0,0.0,93,0.00,,---,0.29,VWS V14.01,2013-01-01 23:01:00,
2013-01-01 17:05:00,37.8,36.0,30.03,NNW,342,0.0,0.0,93,0.00,,---,0.29,VWS V14.01,2013-01-01 23:05:00,
2013-01-01 17:06:00,37.8,36.0,30.03,NNW,342,1.0,1.0,93,0.00,,---,0.29,VWS V14.01,2013-01-01 23:06:00,
2013-01-01 17:10:00,37.8,36.0,30.03,North,360,0.0,2.0,93,0.00,,---,0.29,VWS V14.01,2013-01-01 23:10:00,
2013-01-01 17:11:00,37.8,36.0,30.03,North,360,2.0,2.0,93,0.00,,---,0.29,VWS V14.01,2013-01-01 23:11:00,
2013-01-01 17:15:00,37.6,35.8,30.02,North,360,1.0,3.0,93,0.00,,---,0.29,VWS V14.01,2013-01-01 23:15:00,
2013-01-01 17:16:00,37.6,35.8,30.02,North,5,0.0,3.0,93,0.00,,---,0.29,VWS V14.01,2013-01-01 23:16:00,
2013-01-01 17:20:00,37.6,35.8,30.02,North,5,0.0,3.0,93,0.00,,---,0.29,VWS V14.01,2013-01-01 23:20:00,
2013-01-01 17:21:00,37.6,35.8,30.02,North,5,0.0,0.0,93,0.00,,---,0.29,VWS V14.01,2013-01-01 23:21:00,
2013-01-01 17:25:00,37.6,35.8,30.02,North,5,0.0,2.0,93,0.00,,---,0.29,VWS V14.01,2013-01-01 23:25:00,
2013-01-01 17:26:00,37.6,35.8,30.02,North,5,1.0,2.0,93,0.00,,---,0.29,VWS V14.01,2013-01-01 23:26:00,
2013-01-01 17:30:00,37.6,35.8,30.03,North,5,0.0,2.0,93,0.00,,---,0.29,VWS V14.01,2013-01-01 23:30:00,
2013-01-01 17:31:00,37.6,35.8,30.03,NNW,334,3.0,3.0,93,0.00,,---,0.29,VWS V14.01,2013-01-01 23:31:00,
2013-01-01 17:35:00,37.6,35.8,30.03,NNW,338,0.0,3.0,93,0.00,,---,0.29,VWS V14.01,2013-01-01 23:35:00,
2013-01-01 17:36:00,37.6,35.8,30.03,NNW,338,0.0,2.0,93,0.00,,---,0.29,VWS V14.01,2013-01-01 23:36:00,
2013-01-01 17:40:00,37.6,35.8,30.03,NNW,338,0.0,2.0,93,0.00,,---,0.29,VWS V14.01,2013-01-01 23:40:00,
2013-01-01 17:41:00,37.6,35.8,30.03,NNW,338,0.0,0.0,93,0.00,,---,0.29,VWS V14.01,2013-01-01 23:41:00,
2013-01-01 17:45:00,37.6,35.8,30.04,NNW,338,0.0,3.0,93,0.00,,---,0.29,VWS V14.01,2013-01-01 23:45:00,
2013-01-01 17:46:00,37.6,35.8,30.04,NNW,338,2.0,2.0,93,0.00,,---,0.29,VWS V14.01,2013-01-01 23:46:00,
2013-01-01 17:50:00,37.6,35.8,30.04,NNW,338,1.0,4.0,93,0.00,,---,0.29,VWS V14.01,2013-01-01 23:50:00,
2013-01-01 17:51:00,37.6,35.8,30.04,NNW,331,2.0,4.0,93,0.00,,---,0.29,VWS V14.01,2013-01-01 23:51:00,
2013-01-01 17:55:00,37.6,35.8,30.04,NNW,331,0.0,4.0,93,0.00,,---,0.29,VWS V14.01,2013-01-01 23:55:00,
2013-01-01 17:56:00,37.6,35.8,30.04,NNW,331,0.0,1.0,93,0.00,,---,0.29,VWS V14.01,2013-01-01 23:56:00,
2013-01-01 18:00:00,37.6,35.8,30.02,NNW,331,1.0,3.0,93,0.00,,---,0.29,VWS V14.01,2013-01-02 00:00:00,
2013-01-01 18:01:00,37.6,35.8,30.02,NNW,336,0.0,3.0,93,0.00,,---,0.29,VWS V14.01,2013-01-02 00:01:00,
2013-01-01 18:05:00,37.6,35.8,30.02,NW,320,0.0,3.0,93,0.00,,---,0.29,VWS V14.01,2013-01-02 00:05:00,
2013-01-01 18:06:00,37.6,35.8,30.02,NNW,337,1.0,3.0,93,0.00,,---,0.29,VWS V14.01,2013-01-02 00:06:00,
2013-01-01 18:10:00,37.5,35.7,30.02,NNW,337,0.0,5.0,93,0.00,,---,0.29,VWS V14.01,2013-01-02 00:10:00,
2013-01-01 18:11:00,37.5,35.7,30.02,NNW,331,5.0,8.0,93,0.00,,---,0.29,VWS V14.01,2013-01-02 00:11:00,
2013-01-01 18:15:00,37.5,35.7,30.03,NNW,346,0.0,8.0,93,0.00,,---,0.29,VWS V14.01,2013-01-02 00:15:00,
2013-01-01 18:16:00,37.5,35.7,30.03,NNW,337,1.0,4.0,93,0.00,,---,0.29,VWS V14.01,2013-01-02 00:16:00,
2013-01-01 18:20:00,37.5,35.7,30.03,NNW,330,3.0,5.0,93,0.00,,---,0.29,VWS V14.01,2013-01-02 00:20:00,
2013-01-01 18:21:00,37.5,35.7,30.03,NNW,334,0.0,4.0,93,0.00,,---,0.29,VWS V14.01,2013-01-02 00:21:00,
2013-01-01 18:25:00,37.3,35.5,30.03,NNW,344,2.0,4.0,93,0.00,,---,0.29,VWS V14.01,2013-01-02 00:25:00,
2013-01-01 18:26:00,37.3,35.5,30.03,NNW,342,5.0,5.0,93,0.00,,---,0.29,VWS V14.01,2013-01-02 00:26:00,
2013-01-01 18:30:00,37.3,35.5,30.05,NNW,333,3.0,7.0,93,0.00,,---,0.29,VWS V14.01,2013-01-02 00:30:00,
2013-01-01 18:31:00,37.3,35.5,30.05,NW,324,1.0,5.0,93,0.00,,---,0.29,VWS V14.01,2013-01-02 00:31:00,
2013-01-01 18:35:00,37.3,35.5,30.05,NNW,346,3.0,5.0,93,0.00,,---,0.29,VWS V14.01,2013-01-02 00:35:00,
2013-01-01 18:36:00,37.3,35.5,30.05,NNE,19,2.0,4.0,93,0.00,,---,0.29,VWS V14.01,2013-01-02 00:36:00,
2013-01-01 18:40:00,37.3,35.5,30.05,NNW,327,1.0,4.0,93,0.00,,---,0.29,VWS V14.01,2013-01-02 00:40:00,
2013-01-01 18:41:00,37.3,35.5,30.05,NNW,346,6.0,7.0,93,0.00,,---,0.29,VWS V14.01,2013-01-02 00:41:00,
2013-01-01 18:45:00,37.3,35.5,30.06,NNW,345,4.0,9.0,93,0.00,,---,0.29,VWS V14.01,2013-01-02 00:45:00,
2013-01-01 18:46:00,37.2,35.4,30.06,NNW,338,0.0,8.0,93,0.00,,---,0.29,VWS V14.01,2013-01-02 00:46:00,
2013-01-01 18:50:00,37.2,35.1,30.06,NNW,342,6.0,13.0,92,0.00,,---,0.29,VWS V14.01,2013-01-02 00:50:00,
2013-01-01 18:51:00,37.0,34.9,30.06,NNW,338,4.0,9.0,92,0.00,,---,0.29,VWS V14.01,2013-01-02 00:51:00,
2013-01-01 18:55:00,36.9,34.8,30.06,NW,317,5.0,14.0,92,0.00,,---,0.29,VWS V14.01,2013-01-02 00:55:00,
2013-01-01 18:56:00,36.9,34.8,30.06,NNW,335,7.0,10.0,92,0.00,,---,0.29,VWS V14.01,2013-01-02 00:56:00,
2013-01-01 19:00:00,36.8,34.7,30.06,NNW,335,5.0,14.0,92,0.00,,---,0.29,VWS V14.01,2013-01-02 01:00:00,
2013-01-01 19:01:00,36.6,34.5,30.06,North,355,11.0,11.0,92,0.00,,---,0.29,VWS V14.01,2013-01-02 01:01:00,
2013-01-01 19:05:00,36.5,34.4,30.06,NNW,338,6.0,11.0,92,0.00,,---,0.29,VWS V14.01,2013-01-02 01:05:00,
2013-01-01 19:06:00,36.5,34.4,30.06,NNW,343,3.0,12.0,92,0.00,,---,0.29,VWS V14.01,2013-01-02 01:06:00,
2013-01-01 19:10:00,36.5,34.4,30.06,NNW,346,2.0,12.0,92,0.00,,---,0.29,VWS V14.01,2013-01-02 01:10:00,
2013-01-01 19:11:00,36.3,34.2,30.06,NNW,333,2.0,10.0,92,0.00,,---,0.29,VWS V14.01,2013-01-02 01:11:00,
2013-01-01 19:15:00,36.3,34.2,30.08,NNW,329,3.0,10.0,92,0.00,,---,0.29,VWS V14.01,2013-01-02 01:15:00,
2013-01-01 19:16:00,36.3,34.2,30.08,North,360,2.0,6.0,92,0.00,,---,0.29,VWS V14.01,2013-01-02 01:16:00,
2013-01-01 19:20:00,36.3,34.2,30.08,NNW,337,5.0,6.0,92,0.00,,---,0.29,VWS V14.01,2013-01-02 01:20:00,
2013-01-01 19:21:00,36.3,34.2,30.08,NNW,344,3.0,9.0,92,0.00,,---,0.29,VWS V14.01,2013-01-02 01:21:00,
2013-01-01 19:25:00,36.2,34.1,30.08,WNW,301,4.0,13.0,92,0.00,,---,0.29,VWS V14.01,2013-01-02 01:25:00,
2013-01-01 19:26:00,36.0,33.9,30.08,NW,315,4.0,9.0,92,0.00,,---,0.29,VWS V14.01,2013-01-02 01:26:00,
2013-01-01 19:30:00,36.0,33.9,30.09,NNW,333,6.0,11.0,92,0.00,,---,0.29,VWS V14.01,2013-01-02 01:30:00,
2013-01-01 19:31:00,35.9,33.8,30.09,NNW,339,6.0,9.0,92,0.00,,---,0.29,VWS V14.01,2013-01-02 01:31:00,
2013-01-01 19:35:00,35.8,33.7,30.09,NNW,329,4.0,11.0,92,0.00,,---,0.29,VWS V14.01,2013-01-02 01:35:00,
2013-01-01 19:36:00,35.8,33.7,30.09,NW,322,3.0,7.0,92,0.00,,---,0.29,VWS V14.01,2013-01-02 01:36:00,
2013-01-01 19:40:00,35.6,33.5,30.09,NNW,328,2.0,7.0,92,0.00,,---,0.29,VWS V14.01,2013-01-02 01:40:00,
2013-01-01 19:41:00,35.6,33.5,30.09,NNW,338,2.0,4.0,92,0.00,,---,0.29,VWS V14.01,2013-01-02 01:41:00,
2013-01-01 19:45:00,35.5,33.4,30.08,NW,325,4.0,7.0,92,0.00,,---,0.29,VWS V14.01,2013-01-02 01:45:00,
2013-01-01 19:46:00,35.5,33.4,30.08,NW,325,4.0,6.0,92,0.00,,---,0.29,VWS V14.01,2013-01-02 01:46:00,
2013-01-01 19:50:00,35.3,33.2,30.08,NW,321,1.0,6.0,92,0.00,,---,0.29,VWS V14.01,2013-01-02 01:50:00,
2013-01-01 19:51:00,35.3,33.2,30.08,North,351,2.0,8.0,92,0.00,,---,0.29,VWS V14.01,2013-01-02 01:51:00,
2013-01-01 19:55:00,35.2,33.1,30.08,NNW,342,3.0,8.0,92,0.00,,---,0.29,VWS V14.01,2013-01-02 01:55:00,
2013-01-01 19:56:00,35.2,33.1,30.08,North,355,1.0,13.0,92,0.00,,---,0.29,VWS V14.01,2013-01-02 01:56:00,
2013-01-01 20:00:00,35.0,32.9,30.09,NNW,346,6.0,13.0,92,0.00,,---,0.29,VWS V14.01,2013-01-02 02:00:00,
2013-01-01 20:02:00,34.9,32.8,30.09,NE,44,3.0,6.0,92,0.00,,---,0.29,VWS V14.01,2013-01-02 02:02:00,
2013-01-01 20:05:00,34.9,32.8,30.09,NNW,331,0.0,6.0,92,0.00,,---,0.29,VWS V14.01,2013-01-02 02:05:00,
2013-01-01 20:07:00,34.9,32.8,30.09,NNW,331,0.0,3.0,92,0.00,,---,0.29,VWS V14.01,2013-01-02 02:07:00,
2013-01-01 20:10:00,34.9,32.8,30.09,North,355,4.0,5.0,92,0.00,,---,0.29,VWS V14.01,2013-01-02 02:10:00,
2013-01-01 20:12:00,34.7,32.6,30.09,NNW,333,4.0,5.0,92,0.00,,---,0.29,VWS V14.01,2013-01-02 02:12:00,
2013-01-01 20:15:00,34.7,32.6,30.08,NNW,337,1.0,6.0,92,0.00,,---,0.29,VWS V14.01,2013-01-02 02:15:00,
2013-01-01 20:17:00,34.7,32.6,30.08,NNW,346,3.0,5.0,92,0.00,,---,0.29,VWS V14.01,2013-01-02 02:17:00,
2013-01-01 20:20:00,34.7,32.6,30.08,NW,322,0.0,5.0,92,0.00,,---,0.29,VWS V14.01,2013-01-02 02:20:00,
2013-01-01 20:22:00,34.7,32.6,30.08,NNW,338,0.0,5.0,92,0.00,,---,0.29,VWS V14.01,2013-01-02 02:22:00,
2013-01-01 20:25:00,34.6,32.5,30.08,NW,321,0.0,5.0,92,0.00,,---,0.29,VWS V14.01,2013-01-02 02:25:00,
2013-01-01 20:27:00,34.6,32.5,30.08,NNW,336,2.0,5.0,92,0.00,,---,0.29,VWS V14.01,2013-01-02 02:27:00,
2013-01-01 20:30:00,34.6,32.5,30.09,NNW,342,0.0,6.0,92,0.00,,---,0.29,VWS V14.01,2013-01-02 02:30:00,
2013-01-01 20:32:00,34.6,32.5,30.09,NW,322,1.0,6.0,92,0.00,,---,0.29,VWS V14.01,2013-01-02 02:32:00,
2013-01-01 20:35:00,34.6,32.5,30.09,NNW,336,5.0,6.0,92,0.00,,---,0.29,VWS V14.01,2013-01-02 02:35:00,
2013-01-01 20:37:00,34.6,32.5,30.09,NW,306,5.0,7.0,92,0.00,,---,0.29,VWS V14.01,2013-01-02 02:37:00,
2013-01-01 20:40:00,34.6,32.5,30.09,NNW,347,1.0,7.0,92,0.00,,---,0.29,VWS V14.01,2013-01-02 02:40:00,
2013-01-01 20:42:00,34.6,32.5,30.09,NW,323,2.0,5.0,92,0.00,,---,0.29,VWS V14.01,2013-01-02 02:42:00,
2013-01-01 20:45:00,34.6,32.5,30.08,NNW,327,0.0,7.0,92,0.00,,---,0.29,VWS V14.01,2013-01-02 02:45:00,
2013-01-01 20:47:00,34.4,32.3,30.08,NW,309,0.0,4.0,92,0.00,,---,0.29,VWS V14.01,2013-01-02 02:47:00,
2013-01-01 20:50:00,34.4,32.3,30.08,NNW,333,1.0,6.0,92,0.00,,---,0.29,VWS V14.01,2013-01-02 02:50:00,
2013-01-01 20:52:00,34.4,32.3,30.08,NNW,327,0.0,3.0,92,0.00,,---,0.29,VWS V14.01,2013-01-02 02:52:00,
2013-01-01 20:55:00,34.4,32.3,30.08,NNW,344,3.0,6.0,92,0.00,,---,0.29,VWS V14.01,2013-01-02 02:55:00,
2013-01-01 20:57:00,34.3,32.2,30.08,NNW,329,0.0,4.0,92,0.00,,---,0.29,VWS V14.01,2013-01-02 02:57:00,
2013-01-01 21:00:00,34.3,32.2,30.09,NW,326,2.0,4.0,92,0.00,,---,0.29,VWS V14.01,2013-01-02 03:00:00,
2013-01-01 21:02:00,34.3,32.2,30.09,NW,319,0.0,5.0,92,0.00,,---,0.29,VWS V14.01,2013-01-02 03:02:00,
2013-01-01 21:05:00,34.1,32.0,30.09,NW,326,0.0,5.0,92,0.00,,---,0.29,VWS V14.01,2013-01-02 03:05:00,
2013-01-01 21:07:00,34.1,32.0,30.09,North,355,5.0,10.0,92,0.00,,---,0.29,VWS V14.01,2013-01-02 03:07:00,
2013-01-01 21:10:00,34.1,32.0,30.09,NNE,12,0.0,10.0,92,0.00,,---,0.29,VWS V14.01,2013-01-02 03:10:00,
2013-01-01 21:12:00,34.1,32.0,30.09,WNW,298,3.0,6.0,92,0.00,,---,0.29,VWS V14.01,2013-01-02 03:12:00,
2013-01-01 21:15:00,34.0,31.9,30.10,NNW,335,4.0,6.0,92,0.00,,---,0.29,VWS V14.01,2013-01-02 03:15:00,
2013-01-01 21:17:00,33.8,31.7,30.10,NNW,334,6.0,10.0,92,0.00,,---,0.29,VWS V14.01,2013-01-02 03:17:00,
2013-01-01 21:20:00,33.8,31.7,30.10,NNW,331,2.0,10.0,92,0.00,,---,0.29,VWS V14.01,2013-01-02 03:20:00,
2013-01-01 21:22:00,33.7,31.6,30.10,NW,325,3.0,9.0,92,0.00,,---,0.29,VWS V14.01,2013-01-02 03:22:00,
2013-01-01 21:25:00,33.7,31.6,30.10,NNE,21,4.0,10.0,92,0.00,,---,0.29,VWS V14.01,2013-01-02 03:25:00,
2013-01-01 21:27:00,33.5,31.4,30.10,NNW,331,3.0,4.0,92,0.00,,---,0.29,VWS V14.01,2013-01-02 03:27:00,
2013-01-01 21:30:00,33.5,31.4,30.11,North,355,3.0,10.0,92,0.00,,---,0.29,VWS V14.01,2013-01-02 03:30:00,
2013-01-01 21:32:00,33.5,31.4,30.11,NNW,336,0.0,7.0,92,0.00,,---,0.29,VWS V14.01,2013-01-02 03:32:00,
2013-01-01 21:35:00,33.5,31.4,30.11,North,350,0.0,7.0,92,0.00,,---,0.29,VWS V14.01,2013-01-02 03:35:00,
2013-01-01 21:37:00,33.5,31.4,30.11,NNW,341,0.0,2.0,92,0.00,,---,0.29,VWS V14.01,2013-01-02 03:37:00,
2013-01-01 21:40:00,33.5,31.4,30.11,NNW,341,0.0,2.0,92,0.00,,---,0.29,VWS V14.01,2013-01-02 03:40:00,
2013-01-01 21:42:00,33.5,31.4,30.11,NNW,340,5.0,5.0,92,0.00,,---,0.29,VWS V14.01,2013-01-02 03:42:00,
2013-01-01 21:45:00,33.5,31.4,30.10,WNW,297,1.0,6.0,92,0.00,,---,0.29,VWS V14.01,2013-01-02 03:45:00,
2013-01-01 21:47:00,33.4,31.3,30.10,NNW,329,2.0,2.0,92,0.00,,---,0.29,VWS V14.01,2013-01-02 03:47:00,
2013-01-01 21:50:00,33.4,31.3,30.10,NNW,341,2.0,7.0,92,0.00,,---,0.29,VWS V14.01,2013-01-02 03:50:00,
2013-01-01 21:52:00,33.4,31.3,30.10,North,349,2.0,5.0,92,0.00,,---,0.29,VWS V14.01,2013-01-02 03:52:00,
2013-01-01 21:55:00,33.2,31.1,30.10,NNW,330,2.0,5.0,92,0.00,,---,0.29,VWS V14.01,2013-01-02 03:55:00,
2013-01-01 21:57:00,33.2,31.1,30.10,NNW,330,0.0,2.0,92,0.00,,---,0.29,VWS V14.01,2013-01-02 03:57:00,
2013-01-01 22:00:00,33.2,31.1,30.10,NW,324,1.0,3.0,92,0.00,,---,0.29,VWS V14.01,2013-01-02 04:00:00,
2013-01-01 22:02:00,33.2,31.1,30.10,NW,310,0.0,6.0,92,0.00,,---,0.29,VWS V14.01,2013-01-02 04:02:00,
2013-01-01 22:05:00,33.2,31.1,30.10,North,355,3.0,6.0,92,0.00,,---,0.29,VWS V14.01,2013-01-02 04:05:00,
2013-01-01 22:07:00,33.2,31.1,30.10,North,350,0.0,7.0,92,0.00,,---,0.29,VWS V14.01,2013-01-02 04:07:00,
2013-01-01 22:10:00,33.2,31.1,30.10,NNW,346,4.0,7.0,92,0.00,,---,0.29,VWS V14.01,2013-01-02 04:10:00,
2013-01-01 22:12:00,33.1,30.8,30.10,NNW,340,2.0,4.0,91,0.00,,---,0.29,VWS V14.01,2013-01-02 04:12:00,
2013-01-01 22:15:00,33.1,30.8,30.11,NNE,15,4.0,4.0,91,0.00,,---,0.29,VWS V14.01,2013-01-02 04:15:00,
2013-01-01 22:17:00,33.1,30.8,30.11,NNW,333,3.0,6.0,91,0.00,,---,0.29,VWS V14.01,2013-01-02 04:17:00,
2013-01-01 22:20:00,32.9,30.6,30.11,NNW,334,0.0,7.0,91,0.00,,---,0.29,VWS V14.01,2013-01-02 04:20:00,
2013-01-01 22:22:00,32.9,30.6,30.11,NNW,336,3.0,4.0,91,0.00,,---,0.29,VWS V14.01,2013-01-02 04:22:00,
2013-01-01 22:25:00,32.9,30.6,30.11,NNW,336,0.0,4.0,91,0.00,,---,0.29,VWS V14.01,2013-01-02 04:25:00,
2013-01-01 22:27:00,32.9,30.6,30.11,NNW,336,3.0,4.0,91,0.00,,---,0.29,VWS V14.01,2013-01-02 04:27:00,
2013-01-01 22:30:00,32.8,30.5,30.11,NNW,327,2.0,4.0,91,0.00,,---,0.29,VWS V14.01,2013-01-02 04:30:00,
2013-01-01 22:32:00,32.8,30.5,30.11,North,355,0.0,3.0,91,0.00,,---,0.29,VWS V14.01,2013-01-02 04:32:00,
2013-01-01 22:35:00,32.8,30.5,30.11,North,355,0.0,3.0,91,0.00,,---,0.29,VWS V14.01,2013-01-02 04:35:00,
2013-01-01 22:37:00,32.8,30.5,30.11,NNW,327,2.0,10.0,91,0.00,,---,0.29,VWS V14.01,2013-01-02 04:37:00,
2013-01-01 22:40:00,32.7,30.4,30.11,NNW,340,0.0,10.0,91,0.00,,---,0.29,VWS V14.01,2013-01-02 04:40:00,
2013-01-01 22:42:00,32.7,30.4,30.11,WNW,295,0.0,4.0,91,0.00,,---,0.29,VWS V14.01,2013-01-02 04:42:00,
2013-01-01 22:45:00,32.7,30.4,30.11,NNW,342,2.0,4.0,91,0.00,,---,0.29,VWS V14.01,2013-01-02 04:45:00,
2013-01-01 22:47:00,32.5,30.2,30.11,NNW,338,0.0,5.0,91,0.00,,---,0.29,VWS V14.01,2013-01-02 04:47:00,
2013-01-01 22:50:00,32.5,30.2,30.11,NNW,338,3.0,5.0,91,0.00,,---,0.29,VWS V14.01,2013-01-02 04:50:00,
2013-01-01 22:52:00,32.5,30.2,30.11,WNW,290,0.0,3.0,91,0.00,,---,0.29,VWS V14.01,2013-01-02 04:52:00,
2013-01-01 22:55:00,32.5,30.2,30.11,NNW,343,3.0,4.0,91,0.00,,---,0.29,VWS V14.01,2013-01-02 04:55:00,
2013-01-01 22:57:00,32.4,30.1,30.11,NW,324,3.0,5.0,91,0.00,,---,0.29,VWS V14.01,2013-01-02 04:57:00,
2013-01-01 23:00:00,32.4,30.1,30.12,NNW,346,2.0,2.0,91,0.00,,---,0.29,VWS V14.01,2013-01-02 05:00:00,
2013-01-01 23:02:00,32.2,29.9,30.12,NNW,335,1.0,5.0,91,0.00,,---,0.29,VWS V14.01,2013-01-02 05:02:00,
2013-01-01 23:05:00,32.2,29.9,30.12,NNW,348,2.0,5.0,91,0.00,,---,0.29,VWS V14.01,2013-01-02 05:05:00,
2013-01-01 23:07:00,32.1,29.8,30.12,NNW,348,0.0,6.0,91,0.00,,---,0.29,VWS V14.01,2013-01-02 05:07:00,
2013-01-01 23:10:00,32.1,29.8,30.12,NNW,346,3.0,6.0,91,0.00,,---,0.29,VWS V14.01,2013-01-02 05:10:00,
2013-01-01 23:12:00,32.1,29.8,30.12,NW,324,2.0,5.0,91,0.00,,---,0.29,VWS V14.01,2013-01-02 05:12:00,
2013-01-01 23:15:00,31.9,29.6,30.10,NW,312,2.0,6.0,91,0.00,,---,0.29,VWS V14.01,2013-01-02 05:15:00,
2013-01-01 23:17:00,31.9,29.6,30.10,NW,319,0.0,7.0,91,0.00,,---,0.29,VWS V14.01,2013-01-02 05:17:00,
2013-01-01 23:20:00,31.9,29.6,30.10,NW,317,2.0,7.0,91,0.00,,---,0.29,VWS V14.01,2013-01-02 05:20:00,
2013-01-01 23:22:00,31.8,29.5,30.10,NNW,342,2.0,6.0,91,0.00,,---,0.29,VWS V14.01,2013-01-02 05:22:00,
2013-01-01 23:25:00,31.8,29.5,30.10,WNW,291,3.0,6.0,91,0.00,,---,0.29,VWS V14.01,2013-01-02 05:25:00,
2013-01-01 23:27:00,31.8,29.5,30.10,WNW,302,7.0,7.0,91,0.00,,---,0.29,VWS V14.01,2013-01-02 05:27:00,
2013-01-01 23:30:00,31.8,29.5,30.11,NNW,340,0.0,7.0,91,0.00,,---,0.29,VWS V14.01,2013-01-02 05:30:00,
2013-01-01 23:32:00,31.6,29.3,30.11,North,351,2.0,3.0,91,0.00,,---,0.29,VWS V14.01,2013-01-02 05:32:00,
2013-01-01 23:35:00,31.6,29.3,30.11,North,349,2.0,4.0,91,0.00,,---,0.29,VWS V14.01,2013-01-02 05:35:00,
2013-01-01 23:37:00,31.6,29.3,30.11,NW,316,0.0,5.0,91,0.00,,---,0.29,VWS V14.01,2013-01-02 05:37:00,
2013-01-01 23:40:00,31.6,29.3,30.11,NW,316,0.0,5.0,91,0.00,,---,0.29,VWS V14.01,2013-01-02 05:40:00,
2013-01-01 23:42:00,31.6,29.3,30.11,NW,315,1.0,1.0,91,0.00,,---,0.29,VWS V14.01,2013-01-02 05:42:00,
2013-01-01 23:45:00,31.5,29.2,30.11,WNW,288,0.0,3.0,91,0.00,,---,0.29,VWS V14.01,2013-01-02 05:45:00,
2013-01-01 23:47:00,31.5,29.2,30.11,WNW,289,0.0,2.0,91,0.00,,---,0.29,VWS V14.01,2013-01-02 05:47:00,
2013-01-01 23:50:00,31.5,29.2,30.11,NW,305,2.0,5.0,91,0.00,,---,0.29,VWS V14.01,2013-01-02 05:50:00,
2013-01-01 23:52:00,31.5,29.2,30.11,NW,313,1.0,6.0,91,0.00,,---,0.29,VWS V14.01,2013-01-02 05:52:00,
2013-01-01 23:55:00,31.5,29.2,30.11,NW,316,0.0,6.0,91,0.00,,---,0.29,VWS V14.01,2013-01-02 05:55:00,
2013-01-01 23:57:00,31.5,29.2,30.11,NW,315,3.0,5.0,91,0.00,,---,0.29,VWS V14.01,2013-01-02 05:57:00,